createdAt,value
2023-03-30T00:00:14.036Z,5.30
2023-03-30T00:02:44.358Z,5.30
2023-03-30T00:05:13.891Z,5.50
2023-03-30T00:07:43.442Z,5.50
2023-03-30T00:10:13.084Z,5.50
2023-03-30T00:12:43.678Z,5.50
2023-03-30T00:15:13.449Z,5.40
2023-03-30T00:17:41.710Z,5.40
2023-03-30T00:20:12.118Z,5.40
2023-03-30T00:22:41.261Z,5.50
2023-03-30T00:25:12.476Z,5.60
2023-03-30T00:27:42.886Z,5.50
2023-03-30T00:30:14.572Z,5.60
2023-03-30T00:32:43.189Z,5.60
2023-03-30T00:35:13.441Z,5.60
2023-03-30T00:37:45.770Z,5.50
2023-03-30T00:40:18.062Z,5.40
2023-03-30T00:42:48.288Z,5.30
2023-03-30T00:45:23.845Z,5.20
2023-03-30T00:47:57.680Z,5.10
2023-03-30T00:50:29.999Z,5.00
2023-03-30T00:53:01.069Z,4.90
2023-03-30T00:55:32.333Z,4.90
2023-03-30T00:58:03.021Z,4.90
2023-03-30T01:00:33.177Z,4.80
2023-03-30T01:03:06.480Z,4.90
2023-03-30T01:05:35.895Z,5.00
2023-03-30T01:08:07.728Z,5.10
2023-03-30T01:10:36.216Z,5.10
2023-03-30T01:13:06.747Z,5.10
2023-03-30T01:15:38.756Z,5.10
2023-03-30T01:18:24.129Z,5.00
2023-03-30T01:21:33.742Z,5.10
2023-03-30T01:24:42.718Z,5.10
2023-03-30T01:27:25.646Z,5.10
2023-03-30T01:30:20.128Z,5.10
2023-03-30T01:33:39.395Z,5.10
2023-03-30T01:36:46.933Z,5.20
2023-03-30T01:39:29.128Z,5.30
2023-03-30T01:42:02.707Z,5.30
2023-03-30T01:44:37.832Z,5.30
2023-03-30T01:47:13.583Z,5.30
2023-03-30T01:49:47.088Z,5.30
2023-03-30T01:52:21.087Z,5.30
2023-03-30T01:54:55.963Z,5.30
2023-03-30T01:57:32.409Z,5.40
2023-03-30T02:00:10.433Z,5.30
2023-03-30T02:02:39.783Z,5.30
2023-03-30T02:05:10.389Z,5.20
2023-03-30T02:07:41.088Z,5.30
2023-03-30T02:10:13.316Z,5.30
2023-03-30T02:12:42.974Z,5.20
2023-03-30T02:15:15.492Z,5.30
2023-03-30T02:17:46.089Z,5.40
2023-03-30T02:20:16.957Z,5.40
2023-03-30T02:22:46.325Z,5.40
2023-03-30T02:25:17.525Z,5.40
2023-03-30T02:27:45.938Z,5.40
2023-03-30T02:30:15.175Z,5.50
2023-03-30T02:32:46.522Z,5.40
2023-03-30T02:35:42.125Z,5.40
2023-03-30T02:38:39.554Z,5.30
2023-03-30T02:41:17.797Z,5.30
2023-03-30T02:43:52.598Z,5.40
2023-03-30T02:46:41.004Z,5.40
2023-03-30T02:49:17.061Z,5.30
2023-03-30T02:51:49.200Z,5.30
2023-03-30T02:54:30.540Z,5.30
2023-03-30T02:57:09.153Z,5.30
2023-03-30T02:59:46.258Z,5.30
2023-03-30T03:02:20.286Z,5.30
2023-03-30T03:04:51.257Z,5.40
2023-03-30T03:07:20.725Z,5.40
2023-03-30T03:09:49.413Z,5.30
2023-03-30T03:12:19.148Z,5.30
2023-03-30T03:14:47.490Z,5.30
2023-03-30T03:17:22.445Z,5.30
2023-03-30T03:19:51.234Z,5.30
2023-03-30T03:22:19.619Z,5.30
2023-03-30T03:24:47.924Z,5.30
2023-03-30T03:27:16.428Z,5.30
2023-03-30T03:29:46.210Z,5.30
2023-03-30T03:32:14.606Z,5.40
2023-03-30T03:34:44.865Z,5.40
2023-03-30T03:37:13.440Z,5.40
2023-03-30T03:39:41.766Z,5.40
2023-03-30T03:42:10.159Z,5.40
2023-03-30T03:44:40.611Z,5.40
2023-03-30T03:47:15.991Z,5.40
2023-03-30T03:49:45.043Z,5.40
2023-03-30T03:52:13.447Z,5.40
2023-03-30T03:54:41.753Z,5.40
2023-03-30T03:57:10.321Z,5.50
2023-03-30T03:59:38.793Z,5.40
2023-03-30T04:02:07.148Z,5.50
2023-03-30T04:04:36.971Z,5.50
2023-03-30T04:07:05.693Z,5.60
2023-03-30T04:09:33.957Z,5.60
2023-03-30T04:12:02.248Z,5.60
2023-03-30T04:14:30.501Z,5.60
2023-03-30T04:16:58.933Z,5.70
2023-03-30T04:19:27.907Z,5.70
2023-03-30T04:21:59.022Z,5.70
2023-03-30T04:24:29.903Z,5.80
2023-03-30T04:26:58.768Z,5.80
2023-03-30T04:29:27.250Z,5.80
2023-03-30T04:31:56.749Z,5.80
2023-03-30T04:34:26.817Z,5.80
2023-03-30T04:36:55.126Z,5.90
2023-03-30T04:39:27.657Z,5.80
2023-03-30T04:41:55.965Z,5.80
2023-03-30T04:44:24.301Z,5.80
2023-03-30T04:46:52.618Z,5.70
2023-03-30T04:49:21.064Z,5.60
2023-03-30T04:51:49.491Z,5.60
2023-03-30T04:54:17.752Z,5.60
2023-03-30T04:56:47.413Z,5.60
2023-03-30T04:59:15.679Z,5.60
2023-03-30T05:01:45.567Z,5.60
2023-03-30T05:04:13.906Z,5.70
2023-03-30T05:06:42.249Z,5.70
2023-03-30T05:09:10.869Z,5.80
2023-03-30T05:11:39.739Z,5.70
2023-03-30T05:14:09.500Z,5.70
2023-03-30T05:16:38.056Z,5.70
2023-03-30T05:19:06.464Z,5.80
2023-03-30T05:21:34.745Z,5.80
2023-03-30T05:24:03.166Z,5.80
2023-03-30T05:26:31.723Z,5.90
2023-03-30T05:29:00.148Z,5.90
2023-03-30T05:31:30.050Z,6.00
2023-03-30T05:33:58.451Z,6.00
2023-03-30T05:36:26.813Z,6.00
2023-03-30T05:38:55.025Z,6.10
2023-03-30T05:41:23.657Z,6.10
2023-03-30T05:43:52.479Z,6.10
2023-03-30T05:46:21.581Z,6.10
2023-03-30T05:48:51.513Z,6.20
2023-03-30T05:51:19.972Z,6.30
2023-03-30T05:53:48.435Z,6.40
2023-03-30T05:56:16.985Z,6.50
2023-03-30T05:58:45.256Z,6.60
2023-03-30T06:01:13.551Z,6.80
2023-03-30T06:03:42.294Z,6.90
2023-03-30T06:06:15.323Z,7.00
2023-03-30T06:08:43.668Z,7.00
2023-03-30T06:11:13.760Z,7.10
2023-03-30T06:13:42.209Z,7.10
2023-03-30T06:16:11.262Z,7.10
2023-03-30T06:18:39.749Z,7.10
2023-03-30T06:21:08.964Z,7.10
2023-03-30T06:23:41.064Z,7.10
2023-03-30T06:26:09.629Z,7.10
2023-03-30T06:28:38.169Z,7.20
2023-03-30T06:31:10.130Z,7.20
2023-03-30T06:33:41.485Z,7.20
2023-03-30T06:36:13.365Z,7.40
2023-03-30T06:38:44.863Z,7.70
2023-03-30T06:41:13.574Z,7.90
2023-03-30T06:43:42.113Z,8.00
2023-03-30T06:46:11.453Z,8.00
2023-03-30T06:48:39.865Z,8.10
2023-03-30T06:51:08.934Z,8.10
2023-03-30T06:53:37.229Z,8.00
2023-03-30T06:56:07.944Z,8.00
2023-03-30T06:58:36.378Z,8.10
2023-03-30T07:01:11.421Z,8.30
2023-03-30T07:03:41.408Z,8.50
2023-03-30T07:06:10.804Z,8.50
2023-03-30T07:08:40.366Z,8.60
2023-03-30T07:11:10.185Z,8.60
2023-03-30T07:13:38.637Z,8.80
2023-03-30T07:16:08.001Z,8.90
2023-03-30T07:18:36.475Z,9.10
2023-03-30T07:21:05.379Z,9.40
2023-03-30T07:23:34.097Z,9.60
2023-03-30T07:26:02.966Z,9.80
2023-03-30T07:28:32.779Z,9.90
2023-03-30T07:31:06.715Z,9.90
2023-03-30T07:33:37.160Z,10.00
2023-03-30T07:36:06.838Z,10.30
2023-03-30T07:38:35.200Z,10.70
2023-03-30T07:41:07.517Z,11.10
2023-03-30T07:43:39.709Z,11.00
2023-03-30T07:46:08.435Z,10.70
2023-03-30T07:48:37.022Z,10.40
2023-03-30T07:51:07.027Z,10.00
2023-03-30T07:53:35.546Z,9.80
2023-03-30T07:56:03.833Z,9.70
2023-03-30T07:58:32.194Z,9.70
2023-03-30T08:01:03.596Z,9.80
2023-03-30T08:03:33.182Z,9.80
2023-03-30T08:06:06.628Z,9.70
2023-03-30T08:08:35.637Z,10.00
2023-03-30T08:11:04.150Z,10.60
2023-03-30T08:13:33.029Z,11.50
2023-03-30T08:16:02.822Z,12.10
2023-03-30T08:18:31.090Z,12.40
2023-03-30T08:20:59.376Z,12.70
2023-03-30T08:23:27.776Z,13.20
2023-03-30T08:25:58.455Z,13.60
2023-03-30T08:28:27.952Z,13.90
2023-03-30T08:30:56.324Z,14.30
2023-03-30T08:33:26.010Z,14.70
2023-03-30T08:35:54.671Z,14.90
2023-03-30T08:38:22.941Z,15.00
2023-03-30T08:40:51.666Z,14.90
2023-03-30T08:43:31.796Z,15.10
2023-03-30T08:46:01.687Z,15.70
2023-03-30T08:48:37.799Z,16.00
2023-03-30T08:51:14.511Z,15.70
2023-03-30T08:53:42.845Z,15.70
2023-03-30T08:56:18.185Z,16.10
2023-03-30T08:58:53.789Z,15.90
2023-03-30T09:01:27.459Z,15.60
2023-03-30T09:04:09.698Z,15.70
2023-03-30T09:06:48.243Z,16.00
2023-03-30T09:09:19.537Z,15.60
2023-03-30T09:11:52.896Z,15.30
2023-03-30T09:14:28.460Z,15.90
2023-03-30T09:17:01.830Z,17.00
2023-03-30T09:19:36.529Z,17.90
2023-03-30T09:22:07.235Z,17.70
2023-03-30T09:24:36.147Z,17.20
2023-03-30T09:27:09.223Z,16.70
2023-03-30T09:29:44.940Z,16.00
2023-03-30T09:32:18.796Z,15.40
2023-03-30T09:34:53.255Z,14.60
2023-03-30T09:37:22.432Z,13.90
2023-03-30T09:39:51.599Z,13.40
2023-03-30T09:42:28.949Z,12.90
2023-03-30T09:45:01.018Z,12.40
2023-03-30T09:47:35.597Z,12.00
2023-03-30T09:50:07.947Z,11.70
2023-03-30T09:52:40.267Z,11.40
2023-03-30T09:55:28.435Z,11.20
2023-03-30T09:58:13.485Z,11.00
2023-03-30T10:00:42.956Z,10.80
2023-03-30T10:03:21.174Z,10.90
2023-03-30T10:06:03.909Z,10.90
2023-03-30T10:08:32.974Z,10.90
2023-03-30T10:11:06.089Z,10.90
2023-03-30T10:13:37.691Z,10.70
2023-03-30T10:16:08.730Z,10.50
2023-03-30T10:18:41.803Z,10.30
2023-03-30T10:21:22.820Z,10.10
2023-03-30T10:24:02.863Z,10.00
2023-03-30T10:26:32.032Z,9.80
2023-03-30T10:29:04.553Z,9.70
2023-03-30T10:31:36.336Z,9.60
2023-03-30T10:34:06.713Z,9.50
2023-03-30T10:36:40.554Z,9.40
2023-03-30T10:39:15.350Z,9.40
2023-03-30T10:41:44.376Z,9.50
2023-03-30T10:44:22.163Z,9.50
2023-03-30T10:46:53.299Z,9.50
2023-03-30T10:49:31.182Z,9.60
2023-03-30T10:52:10.584Z,9.70
2023-03-30T10:54:44.156Z,9.60
2023-03-30T10:57:16.120Z,9.60
2023-03-30T11:00:13.066Z,9.50
2023-03-30T11:02:50.095Z,9.40
2023-03-30T11:05:22.788Z,9.40
2023-03-30T11:07:56.033Z,9.30
2023-03-30T11:10:31.641Z,9.30
2023-03-30T11:13:03.210Z,9.30
2023-03-30T11:15:36.972Z,9.20
2023-03-30T11:18:12.900Z,9.20
2023-03-30T11:20:46.338Z,9.20
2023-03-30T11:23:21.908Z,9.20
2023-03-30T11:26:03.211Z,9.20
2023-03-30T11:28:50.525Z,9.20
2023-03-30T11:31:32.787Z,9.20
2023-03-30T11:34:11.800Z,9.20
2023-03-30T11:36:46.405Z,9.20
2023-03-30T11:39:31.560Z,9.10
2023-03-30T11:42:08.368Z,9.20
2023-03-30T11:44:37.188Z,9.20
2023-03-30T11:47:20.298Z,9.20
2023-03-30T11:50:08.581Z,9.30
2023-03-30T11:52:43.137Z,9.30
2023-03-30T11:55:31.985Z,9.40
2023-03-30T11:58:14.737Z,9.40
2023-03-30T12:00:52.758Z,9.50
2023-03-30T12:03:41.184Z,9.60
2023-03-30T12:06:32.285Z,9.80
2023-03-30T12:09:14.076Z,9.90
2023-03-30T12:11:48.491Z,10.10
2023-03-30T12:14:35.765Z,10.20
2023-03-30T12:17:13.257Z,10.30
2023-03-30T12:19:55.475Z,10.50
2023-03-30T12:22:31.873Z,10.40
2023-03-30T12:25:07.462Z,10.40
2023-03-30T12:27:58.664Z,10.50
2023-03-30T12:30:29.602Z,10.80
2023-03-30T12:33:12.710Z,11.20
2023-03-30T12:35:54.216Z,11.50
2023-03-30T12:38:25.542Z,11.60
2023-03-30T12:41:15.723Z,11.90
2023-03-30T12:44:10.244Z,12.10
2023-03-30T12:46:50.095Z,12.40
2023-03-30T12:49:27.958Z,12.50
2023-03-30T12:52:09.644Z,12.90
2023-03-30T12:55:06.105Z,13.40
2023-03-30T12:57:55.754Z,13.40
2023-03-30T13:01:06.332Z,13.10
2023-03-30T13:03:41.381Z,12.60
2023-03-30T13:06:23.017Z,12.40
2023-03-30T13:08:56.353Z,12.50
2023-03-30T13:11:25.024Z,12.80
2023-03-30T13:13:58.608Z,13.00
2023-03-30T13:17:07.843Z,13.10
2023-03-30T13:19:45.471Z,13.00
2023-03-30T13:22:31.156Z,12.80
2023-03-30T13:25:04.016Z,12.70
2023-03-30T13:27:37.169Z,12.60
2023-03-30T13:30:13.103Z,12.50
2023-03-30T13:32:58.771Z,12.60
2023-03-30T13:35:43.083Z,12.60
2023-03-30T13:38:33.373Z,12.60
2023-03-30T13:41:23.244Z,12.80
2023-03-30T13:44:07.904Z,13.00
2023-03-30T13:46:44.086Z,13.10
2023-03-30T13:49:26.569Z,13.10
2023-03-30T13:52:00.812Z,13.20
2023-03-30T13:54:32.971Z,13.20
2023-03-30T13:57:07.717Z,13.00
2023-03-30T13:59:39.368Z,12.80
2023-03-30T14:02:11.557Z,12.80
2023-03-30T14:04:41.325Z,12.80
2023-03-30T14:07:17.216Z,12.70
2023-03-30T14:10:02.923Z,12.70
2023-03-30T14:12:32.777Z,12.50
2023-03-30T14:15:01.367Z,12.50
2023-03-30T14:17:29.971Z,12.40
2023-03-30T14:20:09.345Z,12.30
2023-03-30T14:22:43.108Z,12.30
2023-03-30T14:25:24.999Z,12.20
2023-03-30T14:27:53.294Z,12.20
2023-03-30T14:30:23.767Z,12.20
2023-03-30T14:33:08.184Z,12.20
2023-03-30T14:35:44.478Z,12.30
2023-03-30T14:38:18.737Z,12.30
2023-03-30T14:40:48.055Z,12.50
2023-03-30T14:43:20.516Z,12.60
2023-03-30T14:45:49.952Z,12.60
2023-03-30T14:48:24.896Z,12.60
2023-03-30T14:50:54.922Z,12.80
2023-03-30T14:53:27.113Z,13.10
2023-03-30T14:55:58.173Z,13.70
2023-03-30T14:58:31.731Z,14.20
2023-03-30T15:01:08.569Z,14.20
2023-03-30T15:03:39.794Z,14.30
2023-03-30T15:06:10.347Z,15.00
2023-03-30T15:08:40.648Z,15.70
2023-03-30T15:11:12.823Z,15.40
2023-03-30T15:13:44.443Z,15.20
2023-03-30T15:16:17.676Z,15.60
2023-03-30T15:18:46.536Z,16.60
2023-03-30T15:21:16.667Z,17.00
2023-03-30T15:23:47.538Z,17.80
2023-03-30T15:26:21.856Z,18.40
2023-03-30T15:28:58.958Z,18.70
2023-03-30T15:31:28.408Z,18.80
2023-03-30T15:33:59.937Z,18.20
2023-03-30T15:36:38.734Z,18.00
2023-03-30T15:39:25.220Z,17.90
2023-03-30T15:42:02.295Z,17.30
2023-03-30T15:44:30.589Z,16.10
2023-03-30T15:47:02.285Z,14.80
2023-03-30T15:49:40.657Z,14.10
2023-03-30T15:52:15.628Z,13.70
2023-03-30T15:54:47.912Z,14.40
2023-03-30T15:57:22.502Z,14.80
2023-03-30T15:59:53.379Z,14.00
2023-03-30T16:02:23.725Z,13.40
2023-03-30T16:04:55.237Z,13.10
2023-03-30T16:07:26.890Z,12.90
2023-03-30T16:09:55.256Z,12.70
2023-03-30T16:12:27.053Z,12.60
2023-03-30T16:14:59.448Z,12.50
2023-03-30T16:17:27.810Z,12.40
2023-03-30T16:19:56.053Z,12.30
2023-03-30T16:22:25.689Z,12.20
2023-03-30T16:24:53.932Z,12.00
2023-03-30T16:27:24.919Z,11.70
2023-03-30T16:29:56.234Z,11.40
2023-03-30T16:32:28.108Z,11.20
2023-03-30T16:34:58.457Z,11.10
2023-03-30T16:37:28.204Z,11.00
2023-03-30T16:39:56.881Z,10.90
2023-03-30T16:42:32.818Z,10.80
2023-03-30T16:45:02.339Z,10.70
2023-03-30T16:47:30.969Z,10.60
2023-03-30T16:49:59.564Z,10.40
2023-03-30T16:52:29.192Z,10.20
2023-03-30T16:54:57.633Z,9.90
2023-03-30T16:57:25.991Z,9.70
2023-03-30T16:59:54.285Z,9.50
2023-03-30T17:02:26.263Z,9.30
2023-03-30T17:04:54.523Z,9.20
2023-03-30T17:07:22.832Z,9.10
2023-03-30T17:09:56.187Z,9.10
2023-03-30T17:12:24.554Z,8.90
2023-03-30T17:14:53.301Z,8.90
2023-03-30T17:17:21.729Z,8.80
2023-03-30T17:19:53.161Z,8.80
2023-03-30T17:22:22.233Z,8.70
2023-03-30T17:24:51.919Z,8.70
2023-03-30T17:27:20.855Z,8.80
2023-03-30T17:29:49.097Z,8.70
2023-03-30T17:32:20.636Z,8.70
2023-03-30T17:34:49.030Z,8.70
2023-03-30T17:37:17.577Z,8.60
2023-03-30T17:39:45.914Z,8.50
2023-03-30T17:42:15.937Z,8.50
2023-03-30T17:44:47.036Z,8.40
2023-03-30T17:47:16.204Z,8.30
2023-03-30T17:49:44.486Z,8.30
2023-03-30T17:52:12.729Z,8.10
2023-03-30T17:54:42.946Z,8.00
2023-03-30T17:57:14.273Z,8.00
2023-03-30T17:59:46.789Z,8.00
2023-03-30T18:02:17.622Z,7.90
2023-03-30T18:04:46.257Z,8.00
2023-03-30T18:07:17.704Z,7.90
2023-03-30T18:09:46.643Z,7.90
2023-03-30T18:12:14.934Z,7.90
2023-03-30T18:14:44.813Z,7.90
2023-03-30T18:17:13.442Z,7.90
2023-03-30T18:19:41.862Z,7.80
2023-03-30T18:22:12.780Z,7.90
2023-03-30T18:24:42.573Z,7.80
2023-03-30T18:27:12.142Z,7.80
2023-03-30T18:29:45.052Z,7.80
2023-03-30T18:32:19.281Z,7.80
2023-03-30T18:34:48.386Z,7.70
2023-03-30T18:37:22.078Z,7.70
2023-03-30T18:39:50.808Z,7.70
2023-03-30T18:42:21.589Z,7.70
2023-03-30T18:44:51.382Z,7.60
2023-03-30T18:47:19.658Z,7.60
2023-03-30T18:49:47.864Z,7.60
2023-03-30T18:52:16.896Z,7.60
2023-03-30T18:54:45.321Z,7.60
2023-03-30T18:57:13.785Z,7.60
2023-03-30T18:59:42.130Z,7.60
2023-03-30T19:02:12.012Z,7.60
2023-03-30T19:04:43.040Z,7.60
2023-03-30T19:07:12.386Z,7.50
2023-03-30T19:09:48.944Z,7.40
2023-03-30T19:12:17.255Z,7.30
2023-03-30T19:14:48.185Z,7.20
2023-03-30T19:17:18.014Z,7.20
2023-03-30T19:19:46.246Z,7.20
2023-03-30T19:22:14.697Z,7.20
2023-03-30T19:24:42.969Z,7.20
2023-03-30T19:27:11.328Z,7.20
2023-03-30T19:29:44.329Z,7.20
2023-03-30T19:32:12.931Z,7.20
2023-03-30T19:34:45.693Z,7.20
2023-03-30T19:37:16.085Z,7.20
2023-03-30T19:39:44.448Z,7.20
2023-03-30T19:42:16.229Z,7.10
2023-03-30T19:44:44.775Z,7.10
2023-03-30T19:47:13.067Z,7.00
2023-03-30T19:49:42.848Z,7.00
2023-03-30T19:52:11.221Z,7.00
2023-03-30T19:54:41.995Z,6.90
2023-03-30T19:57:19.393Z,6.80
2023-03-30T19:59:47.962Z,6.80
2023-03-30T20:02:22.133Z,6.70
2023-03-30T20:04:52.117Z,6.60
2023-03-30T20:07:23.483Z,6.50
2023-03-30T20:09:55.282Z,6.50
2023-03-30T20:12:23.897Z,6.60
2023-03-30T20:14:52.376Z,6.70
2023-03-30T20:17:21.955Z,6.70
2023-03-30T20:19:57.326Z,6.80
2023-03-30T20:22:25.935Z,6.80
2023-03-30T20:24:54.468Z,6.80
2023-03-30T20:27:22.710Z,6.80
2023-03-30T20:29:51.212Z,6.90
2023-03-30T20:32:21.572Z,6.90
2023-03-30T20:34:52.362Z,6.90
2023-03-30T20:37:20.977Z,6.90
2023-03-30T20:39:49.935Z,6.90
2023-03-30T20:42:25.950Z,6.90
2023-03-30T20:44:55.795Z,6.90
2023-03-30T20:47:26.170Z,7.00
2023-03-30T20:49:56.021Z,7.00
2023-03-30T20:52:24.860Z,7.10
2023-03-30T20:54:53.393Z,7.20
2023-03-30T20:57:21.958Z,7.30
2023-03-30T20:59:51.305Z,7.40
2023-03-30T21:02:19.906Z,7.50
2023-03-30T21:04:49.617Z,7.60
2023-03-30T21:07:19.526Z,7.60
2023-03-30T21:09:47.792Z,7.60
2023-03-30T21:12:16.416Z,7.60
2023-03-30T21:14:45.974Z,7.50
2023-03-30T21:17:14.339Z,7.50
2023-03-30T21:19:42.822Z,7.30
2023-03-30T21:22:11.113Z,7.30
2023-03-30T21:24:40.977Z,7.20
2023-03-30T21:27:09.389Z,7.10
2023-03-30T21:29:37.808Z,7.00
2023-03-30T21:32:06.559Z,6.90
2023-03-30T21:34:34.809Z,6.90
2023-03-30T21:37:03.240Z,6.80
2023-03-30T21:39:31.754Z,6.90
2023-03-30T21:42:01.938Z,6.90
2023-03-30T21:44:30.309Z,7.00
2023-03-30T21:46:58.638Z,7.10
2023-03-30T21:49:27.005Z,7.10
2023-03-30T21:51:55.501Z,7.10
2023-03-30T21:54:23.813Z,7.10
2023-03-30T21:56:52.141Z,7.00
2023-03-30T21:59:21.846Z,7.00
2023-03-30T22:01:50.183Z,7.10
2023-03-30T22:04:18.568Z,7.10
2023-03-30T22:06:47.795Z,7.10
2023-03-30T22:09:16.058Z,7.00
2023-03-30T22:11:44.367Z,7.10
2023-03-30T22:14:12.806Z,7.10
2023-03-30T22:16:42.808Z,7.10
2023-03-30T22:19:11.209Z,7.20
2023-03-30T22:21:39.614Z,7.30
2023-03-30T22:24:08.994Z,7.30
2023-03-30T22:26:37.635Z,7.30
2023-03-30T22:29:06.371Z,7.30
2023-03-30T22:31:35.053Z,7.30
2023-03-30T22:34:05.717Z,7.30
2023-03-30T22:36:34.269Z,7.30
2023-03-30T22:39:04.503Z,7.20
2023-03-30T22:41:32.877Z,7.10
2023-03-30T22:44:01.201Z,7.00
2023-03-30T22:46:29.575Z,6.90
2023-03-30T22:48:57.997Z,6.80
2023-03-30T22:51:27.687Z,6.60
2023-03-30T22:53:57.992Z,6.40
2023-03-30T22:56:27.367Z,6.50
2023-03-30T22:58:56.047Z,6.60
2023-03-30T23:01:25.060Z,6.50
2023-03-30T23:03:53.626Z,6.50
2023-03-30T23:06:22.149Z,6.50
2023-03-30T23:08:52.839Z,6.50
2023-03-30T23:11:22.130Z,6.40
2023-03-30T23:13:52.527Z,6.30
2023-03-30T23:16:20.895Z,6.40
2023-03-30T23:18:49.651Z,6.40
2023-03-30T23:21:18.155Z,6.40
2023-03-30T23:23:46.444Z,6.50
2023-03-30T23:26:16.102Z,6.50
2023-03-30T23:28:45.373Z,6.50
2023-03-30T23:31:15.601Z,6.60
2023-03-30T23:33:44.493Z,6.70
2023-03-30T23:36:14.453Z,6.80
2023-03-30T23:38:43.129Z,6.80
2023-03-30T23:41:16.052Z,6.80
2023-03-30T23:43:44.463Z,6.80
2023-03-30T23:46:13.637Z,6.90
2023-03-30T23:48:42.591Z,6.90
2023-03-30T23:51:12.303Z,7.00
2023-03-30T23:53:41.723Z,7.00
2023-03-30T23:56:13.027Z,6.90
2023-03-30T23:58:42.973Z,6.90
